createdAt,value
2023-08-23T00:08:31.635Z,99927.13
2023-08-23T00:10:04.215Z,99927.53
2023-08-23T00:11:36.511Z,99924.38
2023-08-23T00:13:08.745Z,99918.66
2023-08-23T01:01:27.746Z,99931.69
2023-08-23T01:03:00.621Z,99927.28
2023-08-23T01:04:32.879Z,99930.00
2023-08-23T01:06:19.357Z,99924.84
2023-08-23T01:08:01.532Z,99930.56
2023-08-23T01:09:36.456Z,99928.97
2023-08-23T01:11:23.797Z,99928.88
2023-08-23T01:13:14.466Z,99921.91
2023-08-23T01:15:07.258Z,99926.53
2023-08-23T01:16:39.872Z,99924.91
2023-08-23T01:28:21.391Z,99906.53
2023-08-23T01:29:53.813Z,99910.19
2023-08-23T01:31:25.932Z,99900.78
2023-08-23T01:33:07.886Z,99915.44
2023-08-23T01:34:45.683Z,99914.22
2023-08-23T01:36:30.475Z,99906.53
2023-08-23T01:38:03.323Z,99910.00
2023-08-23T01:39:36.121Z,99906.53
2023-08-23T01:41:08.322Z,99912.72
2023-08-23T01:42:41.648Z,99910.75
2023-08-23T01:52:41.858Z,99899.66
2023-08-23T01:54:13.878Z,99906.34
2023-08-23T01:55:46.069Z,99905.41
2023-08-23T01:57:18.279Z,99908.13
2023-08-23T01:58:50.508Z,99912.34
2023-08-23T02:00:22.682Z,99914.06
2023-08-23T02:11:34.171Z,99918.94
2023-08-23T02:13:08.112Z,99904.66
2023-08-23T02:14:40.205Z,99915.06
2023-08-23T02:16:12.494Z,99911.69
2023-08-23T02:17:44.915Z,99910.84
2023-08-23T02:19:17.141Z,99915.28
2023-08-23T02:20:57.596Z,99914.97
2023-08-23T02:27:24.134Z,99912.34
2023-08-23T02:28:56.347Z,99906.41
2023-08-23T02:30:28.537Z,99914.97
2023-08-23T02:32:00.794Z,99910.69
2023-08-23T02:33:33.036Z,99914.97
2023-08-23T02:35:05.589Z,99917.63
2023-08-23T02:43:25.864Z,99910.84
2023-08-23T02:44:58.051Z,99916.78
2023-08-23T02:46:33.218Z,99914.16
2023-08-23T02:48:05.767Z,99919.78
2023-08-23T02:49:38.132Z,99919.34
2023-08-23T02:51:10.290Z,99911.81
2023-08-23T02:52:42.421Z,99912.81
2023-08-23T02:54:14.494Z,99913.06
2023-08-23T02:55:46.897Z,99915.91
2023-08-23T02:57:19.061Z,99919.66
2023-08-23T02:58:51.242Z,99918.72
2023-08-23T03:00:23.350Z,99907.44
2023-08-23T03:01:55.536Z,99912.91
2023-08-23T03:03:28.016Z,99911.19
2023-08-23T03:05:00.356Z,99916.19
2023-08-23T03:06:32.520Z,99911.84
2023-08-23T03:08:05.056Z,99913.72
2023-08-23T03:09:37.215Z,99920.88
2023-08-23T03:11:09.638Z,99917.47
2023-08-23T03:12:41.861Z,99920.31
2023-08-23T03:14:14.107Z,99921.25
2023-08-23T03:15:54.917Z,99921.91
2023-08-23T03:17:27.113Z,99919.66
2023-08-23T03:18:59.325Z,99925.75
2023-08-23T03:20:31.446Z,99913.81
2023-08-23T03:22:06.603Z,99914.59
2023-08-23T03:23:38.793Z,99913.63
2023-08-23T03:25:10.950Z,99918.97
2023-08-23T03:26:43.129Z,99920.59
2023-08-23T03:28:15.475Z,99917.22
2023-08-23T03:29:47.767Z,99916.47
2023-08-23T03:31:23.033Z,99910.59
2023-08-23T03:32:55.268Z,99912.41
2023-08-23T03:34:28.084Z,99912.19
2023-08-23T03:42:50.884Z,99909.09
2023-08-23T03:44:23.001Z,99907.69
2023-08-23T03:45:55.134Z,99919.47
2023-08-23T03:47:27.286Z,99908.94
2023-08-23T03:48:59.525Z,99916.63
2023-08-23T03:50:31.727Z,99909.84
2023-08-23T03:52:04.126Z,99916.81
2023-08-23T03:53:36.291Z,99914.06
2023-08-23T03:55:08.841Z,99916.53
2023-08-23T04:22:32.695Z,99903.88
2023-08-23T04:24:05.219Z,99911.78
2023-08-23T04:25:37.447Z,99918.63
2023-08-23T04:27:09.668Z,99912.53
2023-08-23T04:28:41.867Z,99918.72
2023-08-23T04:30:14.118Z,99909.81
2023-08-23T04:31:46.278Z,99920.13
2023-08-23T04:33:18.545Z,99926.91
2023-08-23T04:34:51.856Z,99921.38
2023-08-23T04:36:23.863Z,99928.75
2023-08-23T04:37:56.053Z,99922.81
2023-08-23T04:42:51.569Z,99933.88
2023-08-23T04:44:23.773Z,99943.50
2023-08-23T04:45:56.470Z,99943.28
2023-08-23T04:47:29.759Z,99940.28
2023-08-23T04:49:02.067Z,99940.94
2023-08-23T04:50:35.092Z,99933.56
2023-08-23T04:52:07.658Z,99934.81
2023-08-23T04:56:53.870Z,99932.59
2023-08-23T04:58:31.601Z,99931.25
2023-08-23T05:00:04.302Z,99936.91
2023-08-23T05:01:36.517Z,99930.47
2023-08-23T05:03:08.767Z,99924.72
2023-08-23T05:04:40.980Z,99933.72
2023-08-23T05:06:13.166Z,99934.06
2023-08-23T05:07:45.723Z,99937.13
2023-08-23T05:09:18.061Z,99930.50
2023-08-23T05:10:54.095Z,99932.31
2023-08-23T05:14:06.716Z,99938.47
2023-08-23T05:15:38.877Z,99932.97
2023-08-23T05:20:25.330Z,99935.97
2023-08-23T05:21:57.669Z,99935.44
2023-08-23T05:23:29.922Z,99927.84
2023-08-23T05:25:02.149Z,99929.09
2023-08-23T05:43:10.979Z,99927.53
2023-08-23T05:44:43.129Z,99930.47
2023-08-23T05:46:15.424Z,99926.41
2023-08-23T05:47:48.028Z,99922.56
2023-08-23T05:49:20.389Z,99931.00
2023-08-23T05:50:52.647Z,99925.53
2023-08-23T05:54:16.604Z,99917.53
2023-08-23T05:55:52.339Z,99933.81
2023-08-23T05:57:24.593Z,99925.41
2023-08-23T05:58:56.773Z,99923.75
2023-08-23T06:00:28.970Z,99923.97
2023-08-23T06:02:01.577Z,99926.88
2023-08-23T06:03:33.979Z,99917.59
2023-08-23T06:05:07.597Z,99924.75
2023-08-23T06:06:39.883Z,99918.75
2023-08-23T06:08:12.704Z,99921.63
2023-08-23T06:09:45.313Z,99923.66
2023-08-23T06:12:51.621Z,99920.19
2023-08-23T06:14:26.291Z,99922.09
2023-08-23T06:15:59.007Z,99915.31
2023-08-23T06:17:31.333Z,99915.41
2023-08-23T06:19:05.018Z,99920.97
2023-08-23T06:20:37.290Z,99916.72
2023-08-23T06:22:10.790Z,99922.25
2023-08-23T06:23:45.423Z,99913.19
2023-08-23T06:25:17.709Z,99920.53
2023-08-23T06:26:52.003Z,99921.69
2023-08-23T06:28:24.195Z,99919.25
2023-08-23T06:29:56.378Z,99915.03
2023-08-23T06:31:28.532Z,99927.41
2023-08-23T06:33:00.914Z,99916.28
2023-08-23T06:34:33.312Z,99925.16
2023-08-23T06:36:10.213Z,99924.66
2023-08-23T06:37:42.927Z,99917.72
2023-08-23T06:39:28.115Z,99922.34
2023-08-23T06:41:06.020Z,99920.75
2023-08-23T06:42:39.248Z,99910.81
2023-08-23T06:44:11.456Z,99919.50
2023-08-23T06:45:43.688Z,99920.94
2023-08-23T06:47:15.926Z,99925.56
2023-08-23T06:48:48.156Z,99924.09
2023-08-23T06:59:29.161Z,99912.78
2023-08-23T07:01:01.434Z,99910.41
2023-08-23T07:02:33.779Z,99915.91
2023-08-23T07:04:06.282Z,99924.88
2023-08-23T07:05:38.649Z,99916.22
2023-08-23T07:07:10.853Z,99918.34
2023-08-23T07:08:44.111Z,99915.69
2023-08-23T07:10:27.427Z,99918.06
2023-08-23T07:12:00.624Z,99911.75
2023-08-23T07:13:33.347Z,99917.34
2023-08-23T07:15:06.109Z,99909.91
2023-08-23T07:16:38.440Z,99921.31
2023-08-23T07:18:10.943Z,99923.22
2023-08-23T07:19:43.168Z,99922.41
2023-08-23T07:21:16.813Z,99922.38
2023-08-23T07:22:49.136Z,99920.69
2023-08-23T07:24:21.391Z,99914.47
2023-08-23T07:25:53.640Z,99919.09
2023-08-23T07:27:26.405Z,99920.38
2023-08-23T07:28:58.607Z,99923.28
2023-08-23T07:30:30.776Z,99921.44
2023-08-23T07:32:02.977Z,99913.34
2023-08-23T07:33:35.352Z,99903.38
2023-08-23T07:35:08.132Z,99911.72
2023-08-23T07:36:40.325Z,99918.31
2023-08-23T07:38:12.509Z,99912.09
2023-08-23T07:39:45.417Z,99912.91
2023-08-23T07:41:17.652Z,99914.41
2023-08-23T07:42:50.389Z,99903.28
2023-08-23T07:44:24.306Z,99906.19
2023-08-23T07:45:59.884Z,99914.97
2023-08-23T07:47:32.210Z,99906.66
2023-08-23T07:49:04.461Z,99905.59
2023-08-23T07:50:36.970Z,99903.00
2023-08-23T07:52:09.094Z,99903.38
2023-08-23T07:53:43.585Z,99901.13
2023-08-23T07:55:15.853Z,99900.50
2023-08-23T07:56:48.115Z,99904.34
2023-08-23T07:58:20.481Z,99908.53
2023-08-23T08:23:35.465Z,99893.78
2023-08-23T08:25:13.291Z,99900.19
2023-08-23T08:26:46.503Z,99896.34
2023-08-23T08:28:18.741Z,99891.53
2023-08-23T08:29:51.160Z,99900.91
2023-08-23T08:31:23.447Z,99901.09
2023-08-23T08:32:55.770Z,99908.63
2023-08-23T08:34:28.843Z,99904.66
2023-08-23T08:39:17.190Z,99892.28
2023-08-23T08:40:50.017Z,99896.53
2023-08-23T08:42:22.814Z,99898.88
2023-08-23T08:43:54.998Z,99897.38
2023-08-23T08:45:27.278Z,99895.38
2023-08-23T08:46:59.525Z,99903.59
2023-08-23T08:48:31.681Z,99903.75
2023-08-23T08:50:04.578Z,99900.75
2023-08-23T08:51:37.605Z,99898.81
2023-08-23T08:53:16.824Z,99894.78
2023-08-23T08:54:52.573Z,99896.09
2023-08-23T08:56:26.893Z,99892.44
2023-08-23T08:58:00.165Z,99891.78
2023-08-23T08:59:33.220Z,99891.09
2023-08-23T09:01:05.311Z,99893.63
2023-08-23T09:02:39.964Z,99894.63
2023-08-23T09:04:12.985Z,99887.09
2023-08-23T09:05:45.141Z,99892.28
2023-08-23T09:07:17.434Z,99891.44
2023-08-23T09:08:49.655Z,99896.13
2023-08-23T09:26:04.038Z,99872.28
2023-08-23T09:27:38.366Z,99868.63
2023-08-23T09:29:10.962Z,99859.53
2023-08-23T09:30:43.237Z,99864.56
2023-08-23T09:32:15.578Z,99858.53
2023-08-23T09:33:47.892Z,99856.16
2023-08-23T09:35:20.434Z,99851.44
2023-08-23T09:36:53.705Z,99846.06
2023-08-23T09:38:26.653Z,99844.56
2023-08-23T09:39:58.917Z,99840.69
2023-08-23T09:41:31.498Z,99842.84
2023-08-23T09:43:03.938Z,99844.81
2023-08-23T09:44:42.244Z,99848.13
2023-08-23T09:46:14.826Z,99842.59
2023-08-23T09:48:06.978Z,99832.31
2023-08-23T09:49:40.932Z,99838.28
2023-08-23T09:58:02.364Z,99827.31
2023-08-23T09:59:35.263Z,99820.75
2023-08-23T10:01:07.457Z,99825.88
2023-08-23T10:02:40.328Z,99818.84
2023-08-23T10:04:12.404Z,99817.56
2023-08-23T10:05:45.186Z,99814.69
2023-08-23T10:07:17.413Z,99814.00
2023-08-23T10:08:50.000Z,99810.38
2023-08-23T10:10:22.334Z,99808.34
2023-08-23T10:11:56.008Z,99809.28
2023-08-23T10:13:30.562Z,99808.56
2023-08-23T10:15:03.427Z,99806.53
2023-08-23T10:16:36.725Z,99809.66
2023-08-23T10:18:14.700Z,99803.75
2023-08-23T10:19:51.491Z,99802.44
2023-08-23T10:21:23.718Z,99799.09
2023-08-23T10:22:58.902Z,99803.28
2023-08-23T10:24:32.976Z,99791.31
2023-08-23T10:26:05.609Z,99792.59
2023-08-23T10:27:38.045Z,99793.25
2023-08-23T10:29:10.865Z,99782.50
2023-08-23T10:30:44.203Z,99786.59
2023-08-23T10:32:16.422Z,99786.81
2023-08-23T10:33:55.824Z,99781.50
2023-08-23T10:35:33.896Z,99779.25
2023-08-23T11:26:12.188Z,99722.56
2023-08-23T11:27:44.556Z,99715.50
2023-08-23T11:29:16.668Z,99720.69
2023-08-23T11:30:49.902Z,99725.09
2023-08-23T11:32:22.291Z,99714.97
2023-08-23T11:33:55.163Z,99709.16
2023-08-23T11:35:27.947Z,99706.97
2023-08-23T11:37:00.218Z,99715.28
2023-08-23T11:38:33.110Z,99708.03
2023-08-23T11:40:09.610Z,99707.19
2023-08-23T11:41:42.140Z,99707.41
2023-08-23T11:50:22.132Z,99690.50
2023-08-23T11:51:55.586Z,99680.97
2023-08-23T11:53:27.884Z,99680.97
2023-08-23T11:55:03.485Z,99689.31
2023-08-23T11:56:35.689Z,99684.53
2023-08-23T11:58:07.940Z,99686.16
2023-08-23T12:19:25.425Z,99656.44
2023-08-23T12:21:01.480Z,99652.69
2023-08-23T12:22:33.662Z,99661.63
2023-08-23T12:24:06.247Z,99659.56
2023-08-23T12:25:38.481Z,99651.03
2023-08-23T12:27:14.285Z,99651.88
2023-08-23T12:28:46.438Z,99650.66
2023-08-23T12:30:18.732Z,99644.41
2023-08-23T12:31:51.074Z,99635.91
2023-08-23T12:33:23.445Z,99650.84
2023-08-23T12:34:55.712Z,99637.78
2023-08-23T12:36:28.099Z,99633.63
2023-08-23T12:38:00.834Z,99637.16
2023-08-23T12:39:32.940Z,99635.72
2023-08-23T12:41:05.132Z,99636.34
2023-08-23T12:42:41.040Z,99644.25
2023-08-23T12:44:14.482Z,99635.34
2023-08-23T12:45:49.760Z,99636.78
2023-08-23T12:47:21.965Z,99640.09
2023-08-23T12:48:54.226Z,99644.25
2023-08-23T12:50:26.576Z,99645.06
2023-08-23T12:51:58.814Z,99630.75
2023-08-23T12:53:31.034Z,99638.66
2023-08-23T12:55:03.211Z,99629.94
2023-08-23T12:56:37.050Z,99632.00
2023-08-23T12:58:09.500Z,99642.81
2023-08-23T12:59:41.772Z,99636.16
2023-08-23T13:01:13.932Z,99638.84
2023-08-23T13:04:26.371Z,99630.50
2023-08-23T13:05:58.789Z,99625.38
2023-08-23T13:07:31.076Z,99626.38
2023-08-23T13:09:04.677Z,99628.06
2023-08-23T13:10:39.197Z,99627.00
2023-08-23T13:20:39.490Z,99620.97
2023-08-23T13:22:12.202Z,99614.13
2023-08-23T13:23:46.097Z,99616.81
2023-08-23T13:25:18.775Z,99613.50
2023-08-23T13:39:13.458Z,99601.03
2023-08-23T13:40:45.716Z,99604.38
2023-08-23T13:42:17.967Z,99602.09
2023-08-23T13:43:50.477Z,99606.84
2023-08-23T13:45:22.688Z,99599.38
2023-08-23T13:46:54.998Z,99603.31
2023-08-23T13:48:27.296Z,99596.88
2023-08-23T13:49:59.557Z,99598.53
2023-08-23T13:51:31.680Z,99588.78
2023-08-23T13:53:03.927Z,99597.91
2023-08-23T13:54:36.529Z,99589.38
2023-08-23T13:56:08.987Z,99598.09
2023-08-23T13:57:41.180Z,99596.06
2023-08-23T13:59:13.376Z,99598.13
2023-08-23T14:00:46.124Z,99598.75
2023-08-23T14:02:18.536Z,99597.25
2023-08-23T14:03:50.645Z,99593.31
2023-08-23T14:05:25.719Z,99591.06
2023-08-23T14:06:58.019Z,99595.63
2023-08-23T14:08:30.966Z,99593.13
2023-08-23T14:10:03.269Z,99600.34
2023-08-23T14:11:35.973Z,99589.31
2023-08-23T14:13:08.185Z,99593.03
2023-08-23T14:14:40.479Z,99596.34
2023-08-23T14:16:12.831Z,99588.84
2023-08-23T14:17:45.133Z,99594.84
2023-08-23T14:19:18.460Z,99587.81
2023-08-23T14:20:50.815Z,99586.53
2023-08-23T14:22:23.223Z,99590.19
2023-08-23T14:23:55.325Z,99597.41
2023-08-23T14:25:27.862Z,99589.47
2023-08-23T14:27:00.063Z,99592.56
2023-08-23T14:28:32.490Z,99582.78
2023-08-23T14:30:04.996Z,99584.84
2023-08-23T14:31:37.282Z,99587.94
2023-08-23T14:33:16.737Z,99581.94
2023-08-23T14:34:49.097Z,99581.50
2023-08-23T14:36:24.512Z,99578.84
2023-08-23T14:37:56.866Z,99577.63
2023-08-23T14:39:29.063Z,99573.28
2023-08-23T14:41:01.198Z,99570.81
2023-08-23T14:42:33.326Z,99574.16
2023-08-23T14:44:05.735Z,99572.50
2023-08-23T14:45:38.938Z,99573.13
2023-08-23T14:47:11.188Z,99575.63
2023-08-23T14:48:43.578Z,99569.19
2023-08-23T14:50:16.089Z,99571.50
2023-08-23T14:51:48.329Z,99566.75
2023-08-23T14:53:20.612Z,99565.31
2023-08-23T14:54:56.120Z,99565.09
2023-08-23T14:56:28.283Z,99565.50
2023-08-23T14:58:00.496Z,99563.00
2023-08-23T14:59:32.726Z,99572.13
2023-08-23T15:01:07.570Z,99560.91
2023-08-23T15:02:39.838Z,99566.47
2023-08-23T15:04:11.998Z,99561.31
2023-08-23T15:05:44.271Z,99561.72
2023-08-23T15:07:17.936Z,99560.72
2023-08-23T15:08:50.788Z,99553.91
2023-08-23T15:10:24.505Z,99559.78
2023-08-23T15:11:56.624Z,99551.44
2023-08-23T15:13:28.882Z,99562.81
2023-08-23T15:15:01.094Z,99554.69
2023-08-23T15:16:33.362Z,99551.38
2023-08-23T15:18:06.084Z,99548.88
2023-08-23T15:19:38.862Z,99546.63
2023-08-23T15:21:11.100Z,99548.34
2023-08-23T15:22:44.421Z,99542.69
2023-08-23T15:24:16.765Z,99541.06
2023-08-23T15:25:49.174Z,99543.94
2023-08-23T15:27:32.983Z,99548.50
2023-08-23T15:29:13.617Z,99533.34
2023-08-23T15:30:45.806Z,99537.09
2023-08-23T15:32:17.961Z,99539.34
2023-08-23T15:33:50.129Z,99543.09
2023-08-23T15:35:22.368Z,99544.31
2023-08-23T15:36:54.590Z,99538.91
2023-08-23T15:38:26.943Z,99535.59
2023-08-23T15:39:59.325Z,99534.38
2023-08-23T15:41:31.569Z,99531.03
2023-08-23T15:43:03.816Z,99530.78
2023-08-23T15:44:36.058Z,99532.22
2023-08-23T15:46:08.492Z,99535.34
2023-08-23T15:47:43.202Z,99535.97
2023-08-23T15:49:15.405Z,99532.00
2023-08-23T15:50:47.635Z,99530.53
2023-08-23T15:52:19.848Z,99537.34
2023-08-23T15:53:52.124Z,99524.28
2023-08-23T15:55:25.558Z,99531.03
2023-08-23T15:56:57.680Z,99527.91
2023-08-23T15:58:32.865Z,99523.94
2023-08-23T16:00:06.044Z,99528.25
2023-08-23T16:01:38.359Z,99520.97
2023-08-23T16:03:10.722Z,99523.44
2023-08-23T16:04:44.199Z,99525.69
2023-08-23T16:06:16.640Z,99523.41
2023-08-23T16:07:48.983Z,99532.06
2023-08-23T16:09:22.153Z,99528.13
2023-08-23T16:10:54.771Z,99526.53
2023-08-23T16:12:26.991Z,99525.88
2023-08-23T16:13:59.155Z,99534.53
2023-08-23T16:15:31.340Z,99531.56
2023-08-23T16:17:03.639Z,99536.06
2023-08-23T16:18:36.013Z,99537.22
2023-08-23T16:20:09.350Z,99538.63
2023-08-23T16:21:42.804Z,99544.13
2023-08-23T16:23:15.099Z,99544.44
2023-08-23T16:24:51.310Z,99544.16
2023-08-23T16:26:23.517Z,99542.56
2023-08-23T16:27:55.710Z,99542.41
2023-08-23T16:29:27.971Z,99543.88
2023-08-23T16:31:00.456Z,99551.44
2023-08-23T16:32:32.859Z,99556.03
2023-08-23T16:34:05.768Z,99556.72
2023-08-23T16:35:40.238Z,99558.28
2023-08-23T16:37:12.852Z,99557.81
2023-08-23T16:38:45.289Z,99556.75
2023-08-23T16:40:17.513Z,99560.56
2023-08-23T16:41:51.921Z,99569.84
2023-08-23T16:43:31.315Z,99575.13
2023-08-23T16:45:04.795Z,99568.69
2023-08-23T16:46:36.975Z,99567.88
2023-08-23T16:48:09.393Z,99570.63
2023-08-23T16:49:41.713Z,99574.03
2023-08-23T16:51:13.997Z,99571.44
2023-08-23T16:52:46.550Z,99570.16
2023-08-23T16:54:19.171Z,99573.03
2023-08-23T16:55:51.528Z,99574.81
2023-08-23T16:57:24.535Z,99568.81
2023-08-23T16:58:56.647Z,99577.41
2023-08-23T17:00:28.903Z,99580.44
2023-08-23T17:02:01.118Z,99573.25
2023-08-23T17:03:33.415Z,99573.47
2023-08-23T17:05:09.246Z,99569.81
2023-08-23T17:06:41.491Z,99573.53
2023-08-23T17:08:13.624Z,99575.84
2023-08-23T17:09:47.209Z,99580.53
2023-08-23T17:11:19.431Z,99578.75
2023-08-23T17:12:51.716Z,99580.56
2023-08-23T17:14:23.910Z,99581.91
2023-08-23T17:15:56.209Z,99584.09
2023-08-23T17:17:28.690Z,99582.91
2023-08-23T17:19:00.882Z,99587.91
2023-08-23T17:20:33.063Z,99580.16
2023-08-23T17:22:08.648Z,99594.03
2023-08-23T17:23:40.804Z,99588.34
2023-08-23T17:25:13.121Z,99590.47
2023-08-23T17:26:45.562Z,99599.13
2023-08-23T17:28:18.000Z,99594.63
2023-08-23T17:29:50.172Z,99600.88
2023-08-23T17:31:22.445Z,99606.19
2023-08-23T17:32:54.777Z,99607.31
2023-08-23T17:34:27.032Z,99605.63
2023-08-23T17:35:59.506Z,99611.91
2023-08-23T17:37:31.709Z,99617.03
2023-08-23T17:39:04.378Z,99607.31
2023-08-23T17:40:36.798Z,99605.25
2023-08-23T17:42:08.953Z,99614.72
2023-08-23T17:43:41.322Z,99625.16
2023-08-23T17:45:13.514Z,99623.97
2023-08-23T17:46:47.573Z,99621.91
2023-08-23T17:48:21.812Z,99620.88
2023-08-23T17:49:54.057Z,99633.81
2023-08-23T17:51:26.249Z,99634.28
2023-08-23T17:52:59.900Z,99641.72
2023-08-23T17:54:32.178Z,99647.38
2023-08-23T17:56:04.864Z,99648.69
2023-08-23T17:57:37.181Z,99652.78
2023-08-23T17:59:09.377Z,99645.50
2023-08-23T18:02:15.713Z,99642.47
2023-08-23T18:03:48.362Z,99647.41
2023-08-23T18:05:20.833Z,99647.19
2023-08-23T18:06:53.033Z,99657.47
2023-08-23T18:08:25.308Z,99655.41
2023-08-23T18:10:01.382Z,99658.66
2023-08-23T18:11:34.029Z,99660.78
2023-08-23T18:13:06.538Z,99666.41
2023-08-23T18:14:38.814Z,99662.66
2023-08-23T18:16:11.116Z,99670.25
2023-08-23T18:17:43.563Z,99663.66
2023-08-23T18:19:15.791Z,99673.91
2023-08-23T18:20:48.142Z,99667.22
2023-08-23T18:22:20.408Z,99674.50
2023-08-23T18:23:53.935Z,99679.28
2023-08-23T18:25:26.236Z,99677.06
2023-08-23T18:26:58.470Z,99676.50
2023-08-23T18:28:30.582Z,99685.63
2023-08-23T18:30:02.728Z,99685.06
2023-08-23T18:31:35.628Z,99681.03
2023-08-23T18:33:09.659Z,99689.00
2023-08-23T18:34:41.995Z,99678.94
2023-08-23T18:36:14.147Z,99689.88
2023-08-23T18:37:46.637Z,99690.47
2023-08-23T18:39:18.982Z,99687.50
2023-08-23T18:40:52.208Z,99689.63
2023-08-23T18:42:24.422Z,99691.84
2023-08-23T18:43:57.805Z,99691.31
2023-08-23T18:45:32.839Z,99690.44
2023-08-23T18:47:07.843Z,99698.03
2023-08-23T18:48:40.021Z,99703.91
2023-08-23T18:50:12.246Z,99707.69
2023-08-23T18:51:44.448Z,99707.81
2023-08-23T18:53:17.842Z,99704.47
2023-08-23T18:54:50.080Z,99704.03
2023-08-23T18:56:22.213Z,99707.81
2023-08-23T18:57:54.525Z,99716.94
2023-08-23T18:59:26.722Z,99710.22
2023-08-23T19:00:59.935Z,99711.47
2023-08-23T19:02:32.170Z,99721.41
2023-08-23T19:04:05.089Z,99722.53
2023-08-23T19:05:37.766Z,99720.41
2023-08-23T19:07:10.018Z,99726.88
2023-08-23T19:08:42.151Z,99722.63
2023-08-23T19:10:14.503Z,99724.88
2023-08-23T19:11:46.880Z,99725.00
2023-08-23T19:13:19.237Z,99726.38
2023-08-23T19:40:43.147Z,99739.63
2023-08-23T19:42:15.402Z,99744.59
2023-08-23T19:43:47.620Z,99746.66
2023-08-23T19:45:19.912Z,99744.13
2023-08-23T19:46:52.125Z,99737.41
2023-08-23T19:48:31.674Z,99736.81
2023-08-23T19:50:06.272Z,99747.31
2023-08-23T19:51:38.455Z,99744.06
2023-08-23T19:53:10.715Z,99740.00
2023-08-23T19:54:42.934Z,99741.94
2023-08-23T19:56:15.166Z,99733.97
2023-08-23T19:57:47.995Z,99739.44
2023-08-23T19:59:20.423Z,99741.81
2023-08-23T20:00:52.606Z,99741.50
2023-08-23T20:02:25.326Z,99734.34
2023-08-23T20:03:57.730Z,99721.84
2023-08-23T20:05:29.921Z,99750.50
2023-08-23T20:07:03.217Z,99748.97
2023-08-23T20:08:35.706Z,99740.69
2023-08-23T20:10:08.333Z,99739.50
2023-08-23T20:11:40.549Z,99742.66
2023-08-23T20:13:12.740Z,99750.50
2023-08-23T20:14:45.003Z,99747.16
2023-08-23T20:16:17.341Z,99741.84
2023-08-23T20:17:50.077Z,99737.84
2023-08-23T20:19:22.714Z,99746.31
2023-08-23T20:20:55.298Z,99744.00
2023-08-23T20:22:27.556Z,99748.44
2023-08-23T20:23:59.716Z,99747.75
2023-08-23T20:25:32.095Z,99753.31
2023-08-23T20:28:44.974Z,99768.75
2023-08-23T20:30:17.174Z,99757.81
2023-08-23T20:31:49.538Z,99746.63
2023-08-23T20:33:22.501Z,99754.56
2023-08-23T20:34:54.705Z,99751.34
2023-08-23T20:36:27.609Z,99743.19
2023-08-23T20:37:59.799Z,99741.47
2023-08-23T20:39:32.056Z,99754.72
2023-08-23T20:41:06.409Z,99752.22
2023-08-23T20:42:40.130Z,99755.13
2023-08-23T20:44:12.253Z,99752.59
2023-08-23T20:45:44.657Z,99752.03
2023-08-23T20:47:17.068Z,99757.56
2023-08-23T20:48:49.475Z,99750.81
2023-08-23T20:50:21.991Z,99745.91
2023-08-23T20:51:54.321Z,99754.78
2023-08-23T20:53:26.643Z,99752.41
2023-08-23T20:54:59.430Z,99749.31
2023-08-23T20:56:31.645Z,99749.66
2023-08-23T20:58:04.084Z,99747.34
2023-08-23T20:59:36.320Z,99750.00
2023-08-23T21:01:08.766Z,99742.41
2023-08-23T21:02:41.375Z,99745.28
2023-08-23T21:04:13.628Z,99746.03
2023-08-23T21:05:45.887Z,99744.25
2023-08-23T21:07:18.261Z,99748.44
2023-08-23T21:08:50.970Z,99742.16
2023-08-23T21:10:23.107Z,99747.84
2023-08-23T21:11:55.280Z,99747.94
2023-08-23T21:13:27.708Z,99755.19
2023-08-23T21:14:59.926Z,99752.78
2023-08-23T21:16:32.121Z,99767.13
2023-08-23T21:18:04.705Z,99770.59
2023-08-23T21:19:37.021Z,99771.81
2023-08-23T21:21:10.320Z,99758.69
2023-08-23T21:22:42.374Z,99763.38
2023-08-23T21:40:43.279Z,99755.69
2023-08-23T21:42:15.412Z,99758.94
2023-08-23T21:43:47.874Z,99754.13
2023-08-23T21:45:20.205Z,99757.59
2023-08-23T21:46:54.238Z,99758.56
2023-08-23T21:48:26.544Z,99747.50
2023-08-23T21:49:58.742Z,99743.19
2023-08-23T21:51:30.811Z,99736.78
2023-08-23T21:53:02.979Z,99754.94
2023-08-23T21:54:35.177Z,99747.38
2023-08-23T21:56:07.611Z,99749.91
2023-08-23T21:57:39.972Z,99752.44
2023-08-23T21:59:12.268Z,99752.44
2023-08-23T22:00:44.365Z,99754.13
2023-08-23T22:02:16.588Z,99746.06
2023-08-23T22:03:48.734Z,99749.56
2023-08-23T22:05:21.136Z,99739.44
2023-08-23T22:06:53.320Z,99755.56
2023-08-23T22:08:25.461Z,99752.81
2023-08-23T22:09:57.625Z,99747.50
2023-08-23T22:11:29.970Z,99749.06
2023-08-23T22:13:02.116Z,99743.16
2023-08-23T22:14:34.318Z,99746.66
2023-08-23T22:16:07.726Z,99758.94
2023-08-23T22:17:40.249Z,99754.72
2023-08-23T22:19:12.568Z,99744.63
2023-08-23T22:20:44.846Z,99750.13
2023-08-23T22:22:17.218Z,99751.22
2023-08-23T22:23:49.457Z,99757.34
2023-08-23T22:25:21.703Z,99754.84
2023-08-23T22:26:53.993Z,99760.97
2023-08-23T22:28:26.304Z,99763.63
2023-08-23T22:29:58.468Z,99765.44
2023-08-23T22:31:30.642Z,99755.19
2023-08-23T22:33:02.960Z,99760.47
2023-08-23T22:34:35.194Z,99752.97
2023-08-23T22:36:07.644Z,99759.25
2023-08-23T22:37:39.903Z,99749.84
2023-08-23T22:39:12.094Z,99748.88
2023-08-23T22:40:52.148Z,99743.47
2023-08-23T23:14:41.676Z,99724.56
2023-08-23T23:16:13.901Z,99728.50
2023-08-23T23:17:46.263Z,99731.03
2023-08-23T23:19:18.528Z,99732.94
2023-08-23T23:20:50.914Z,99733.06
2023-08-23T23:22:23.676Z,99736.78
2023-08-23T23:23:55.827Z,99742.31
2023-08-23T23:25:29.405Z,99738.31
2023-08-23T23:27:02.770Z,99725.56
